createdAt,value
2018-06-10T00:01:21.105Z,8.20
2018-06-10T00:03:48.328Z,8.23
2018-06-10T00:06:15.565Z,8.67
2018-06-10T00:08:42.849Z,7.53
2018-06-10T00:11:10.089Z,7.50
2018-06-10T00:13:37.314Z,7.83
2018-06-10T00:16:04.572Z,8.63
2018-06-10T00:18:31.814Z,8.70
2018-06-10T00:20:59.023Z,9.17
2018-06-10T00:23:26.229Z,9.50
2018-06-10T00:25:53.484Z,10.00
2018-06-10T00:28:26.288Z,10.30
2018-06-10T00:30:53.534Z,9.70
2018-06-10T00:33:20.771Z,9.43
2018-06-10T00:35:47.992Z,9.43
2018-06-10T00:38:15.245Z,9.30
2018-06-10T00:40:42.529Z,9.63
2018-06-10T00:43:09.741Z,9.23
2018-06-10T00:45:37.239Z,9.33
2018-06-10T00:48:04.662Z,9.13
2018-06-10T00:50:31.973Z,8.80
2018-06-10T00:52:59.234Z,8.50
2018-06-10T00:55:26.520Z,9.37
2018-06-10T00:57:53.813Z,8.20
2018-06-10T01:00:21.017Z,8.83
2018-06-10T01:02:48.297Z,9.07
2018-06-10T01:05:15.604Z,8.57
2018-06-10T01:07:42.841Z,8.10
2018-06-10T01:10:10.040Z,8.47
2018-06-10T01:12:37.252Z,9.00
2018-06-10T01:15:04.501Z,9.13
2018-06-10T01:17:31.717Z,8.53
2018-06-10T01:19:58.960Z,8.37
2018-06-10T01:22:26.249Z,8.80
2018-06-10T01:24:53.470Z,8.57
2018-06-10T01:27:20.716Z,9.00
2018-06-10T01:29:48.096Z,8.97
2018-06-10T01:32:15.367Z,8.80
2018-06-10T01:34:42.713Z,9.20
2018-06-10T01:37:09.971Z,8.80
2018-06-10T01:39:37.268Z,8.93
2018-06-10T01:42:04.519Z,8.80
2018-06-10T01:44:31.789Z,9.07
2018-06-10T01:46:59.046Z,8.73
2018-06-10T01:49:26.308Z,9.60
2018-06-10T01:51:53.551Z,8.30
2018-06-10T01:54:20.836Z,9.50
2018-06-10T01:56:48.080Z,8.97
2018-06-10T01:59:15.402Z,8.47
2018-06-10T02:01:42.669Z,9.63
2018-06-10T02:04:09.916Z,8.63
2018-06-10T02:06:37.157Z,9.10
2018-06-10T02:09:05.627Z,10.10
2018-06-10T02:11:32.867Z,9.13
2018-06-10T02:14:00.095Z,9.80
2018-06-10T02:16:27.467Z,9.63
2018-06-10T02:18:54.865Z,9.80
2018-06-10T02:21:22.108Z,9.43
2018-06-10T02:23:49.350Z,8.57
2018-06-10T02:26:16.609Z,9.50
2018-06-10T02:28:43.884Z,9.40
2018-06-10T02:31:11.117Z,9.57
2018-06-10T02:33:38.429Z,9.10
2018-06-10T02:36:05.694Z,9.73
2018-06-10T02:38:32.953Z,9.33
2018-06-10T02:41:00.202Z,9.13
2018-06-10T02:43:27.453Z,9.63
2018-06-10T02:45:54.740Z,9.40
2018-06-10T02:48:21.998Z,8.67
2018-06-10T02:50:49.230Z,8.87
2018-06-10T02:53:16.517Z,9.17
2018-06-10T02:55:43.786Z,8.80
2018-06-10T02:58:11.060Z,9.90
2018-06-10T03:00:38.345Z,9.17
2018-06-10T03:03:05.568Z,10.33
2018-06-10T03:05:32.847Z,8.73
2018-06-10T03:08:00.121Z,9.33
2018-06-10T03:10:27.356Z,9.73
2018-06-10T03:12:54.615Z,10.50
2018-06-10T03:15:21.850Z,9.23
2018-06-10T03:17:49.114Z,8.93
2018-06-10T03:20:16.341Z,8.90
2018-06-10T03:22:43.571Z,9.00
2018-06-10T03:25:10.863Z,9.73
2018-06-10T03:27:38.099Z,10.00
2018-06-10T03:30:05.372Z,10.73
2018-06-10T03:32:32.615Z,9.80
2018-06-10T03:34:59.869Z,9.43
2018-06-10T03:37:27.136Z,9.83
2018-06-10T03:39:54.452Z,11.07
2018-06-10T03:42:21.728Z,10.47
2018-06-10T03:44:48.994Z,10.57
2018-06-10T03:47:16.269Z,9.90
2018-06-10T03:49:43.485Z,11.13
2018-06-10T03:52:10.704Z,10.30
2018-06-10T03:54:37.976Z,9.90
2018-06-10T03:57:05.220Z,10.20
2018-06-10T03:59:32.496Z,10.50
2018-06-10T04:01:59.745Z,10.97
2018-06-10T04:04:26.997Z,10.23
2018-06-10T04:06:54.215Z,11.80
2018-06-10T04:09:21.493Z,11.00
2018-06-10T04:11:48.739Z,10.03
2018-06-10T04:14:16.080Z,11.33
2018-06-10T04:16:43.316Z,11.10
2018-06-10T04:19:10.552Z,11.47
2018-06-10T04:21:37.803Z,11.00
2018-06-10T04:24:05.161Z,11.50
2018-06-10T04:26:32.388Z,10.73
2018-06-10T04:28:59.611Z,10.70
2018-06-10T04:31:26.856Z,11.33
2018-06-10T04:33:54.144Z,11.13
2018-06-10T04:36:21.382Z,11.13
2018-06-10T04:38:48.616Z,12.50
2018-06-10T04:41:15.815Z,12.20
2018-06-10T04:43:43.156Z,13.30
2018-06-10T04:46:10.395Z,11.93
2018-06-10T04:48:37.604Z,11.83
2018-06-10T04:51:04.837Z,12.87
2018-06-10T04:53:32.064Z,11.53
2018-06-10T04:55:59.299Z,11.60
2018-06-10T04:58:26.545Z,11.70
2018-06-10T05:00:53.792Z,9.87
2018-06-10T05:03:21.073Z,11.07
2018-06-10T05:05:48.284Z,10.33
2018-06-10T05:08:15.480Z,9.80
2018-06-10T05:10:42.787Z,11.37
2018-06-10T05:13:09.985Z,11.83
2018-06-10T05:15:37.205Z,11.03
2018-06-10T05:18:04.452Z,11.53
2018-06-10T05:20:31.639Z,13.07
2018-06-10T05:22:58.870Z,12.20
2018-06-10T05:25:26.167Z,14.07
2018-06-10T05:27:53.424Z,12.20
2018-06-10T05:30:20.657Z,11.43
2018-06-10T05:32:47.884Z,11.87
2018-06-10T05:35:15.118Z,12.10
2018-06-10T05:37:42.324Z,12.70
2018-06-10T05:40:09.605Z,14.50
2018-06-10T05:42:36.764Z,12.20
2018-06-10T05:45:04.104Z,11.67
2018-06-10T05:47:31.324Z,12.30
2018-06-10T05:49:58.557Z,12.30
2018-06-10T05:52:25.776Z,12.43
2018-06-10T05:54:53.004Z,12.90
2018-06-10T05:57:20.235Z,12.70
2018-06-10T05:59:47.480Z,12.93
2018-06-10T06:02:14.712Z,11.70
2018-06-10T06:04:41.969Z,12.60
2018-06-10T06:07:09.231Z,12.40
2018-06-10T06:09:36.444Z,13.07
2018-06-10T06:12:03.701Z,12.60
2018-06-10T06:14:30.933Z,11.60
2018-06-10T06:16:58.136Z,12.83
2018-06-10T06:19:25.537Z,13.07
2018-06-10T06:21:52.775Z,11.43
2018-06-10T06:24:20.051Z,12.60
2018-06-10T06:26:47.267Z,12.67
2018-06-10T06:29:14.537Z,12.40
2018-06-10T06:31:41.772Z,13.17
2018-06-10T06:34:08.963Z,12.70
2018-06-10T06:36:36.248Z,11.53
2018-06-10T06:39:05.125Z,12.20
2018-06-10T06:41:32.336Z,12.87
2018-06-10T06:43:59.583Z,11.97
2018-06-10T06:46:26.794Z,12.53
2018-06-10T06:48:54.037Z,12.27
2018-06-10T06:51:21.242Z,12.90
2018-06-10T06:53:48.495Z,12.70
2018-06-10T06:56:15.748Z,13.97
2018-06-10T06:58:43.032Z,14.10
2018-06-10T07:01:10.260Z,14.00
2018-06-10T07:03:37.476Z,12.70
2018-06-10T07:06:04.693Z,14.87
2018-06-10T07:08:31.948Z,14.70
2018-06-10T07:10:59.159Z,14.20
2018-06-10T07:13:26.428Z,14.60
2018-06-10T07:15:53.666Z,14.60
2018-06-10T07:18:20.880Z,15.13
2018-06-10T07:20:48.064Z,14.67
2018-06-10T07:23:15.295Z,15.13
2018-06-10T07:25:42.512Z,14.23
2018-06-10T07:28:09.744Z,16.60
2018-06-10T07:30:36.976Z,15.50
2018-06-10T07:33:04.240Z,16.47
2018-06-10T07:35:31.493Z,16.87
2018-06-10T07:37:58.764Z,17.03
2018-06-10T07:40:26.119Z,16.77
2018-06-10T07:42:53.413Z,15.57
2018-06-10T07:45:20.716Z,17.87
2018-06-10T07:47:48.090Z,16.50
2018-06-10T07:50:15.463Z,17.67
2018-06-10T07:52:42.797Z,15.27
2018-06-10T07:55:10.104Z,16.60
2018-06-10T07:57:37.475Z,15.57
2018-06-10T08:00:04.877Z,15.20
2018-06-10T08:02:32.203Z,15.53
2018-06-10T08:04:59.540Z,14.97
2018-06-10T08:07:26.823Z,15.23
2018-06-10T08:09:54.184Z,14.50
2018-06-10T08:12:21.535Z,16.40
2018-06-10T08:14:48.793Z,15.43
2018-06-10T08:17:16.108Z,13.37
2018-06-10T08:19:43.336Z,14.67
2018-06-10T08:22:10.572Z,15.67
2018-06-10T08:24:37.864Z,13.77
2018-06-10T08:27:05.164Z,13.97
2018-06-10T08:29:32.523Z,13.37
2018-06-10T08:31:59.797Z,12.97
2018-06-10T08:34:27.143Z,12.43
2018-06-10T08:36:54.551Z,13.23
2018-06-10T08:39:21.837Z,13.47
2018-06-10T08:41:49.132Z,13.83
2018-06-10T08:44:16.452Z,11.00
2018-06-10T08:46:43.656Z,10.43
2018-06-10T08:49:10.892Z,10.93
2018-06-10T08:51:38.101Z,8.93
2018-06-10T08:54:05.455Z,9.10
2018-06-10T08:56:32.687Z,8.70
2018-06-10T08:58:59.872Z,9.27
2018-06-10T09:01:27.124Z,9.93
2018-06-10T09:03:54.325Z,10.30
2018-06-10T09:06:21.584Z,10.60
2018-06-10T09:08:48.918Z,11.10
2018-06-10T09:11:16.022Z,9.63
2018-06-10T09:13:43.243Z,9.50
2018-06-10T09:16:10.485Z,8.37
2018-06-10T09:18:37.748Z,9.10
2018-06-10T09:21:05.062Z,7.63
2018-06-10T09:23:32.315Z,8.03
2018-06-10T09:25:59.537Z,9.30
2018-06-10T09:28:26.801Z,8.27
2018-06-10T09:30:54.003Z,10.20
2018-06-10T09:33:21.237Z,11.27
2018-06-10T09:35:48.444Z,10.70
2018-06-10T09:38:15.640Z,11.20
2018-06-10T09:40:42.836Z,10.33
2018-06-10T09:43:10.057Z,10.27
2018-06-10T09:45:37.280Z,11.40
2018-06-10T09:48:04.785Z,12.03
2018-06-10T09:50:32.096Z,12.27
2018-06-10T09:52:59.364Z,11.70
2018-06-10T09:55:27.032Z,13.40
2018-06-10T09:57:54.288Z,10.90
2018-06-10T10:00:23.026Z,10.80
2018-06-10T10:02:50.549Z,11.23
2018-06-10T10:05:17.897Z,10.83
2018-06-10T10:07:45.286Z,10.40
2018-06-10T10:10:12.537Z,12.77
2018-06-10T10:12:39.916Z,11.33
2018-06-10T10:15:07.347Z,11.33
2018-06-10T10:17:34.568Z,10.47
2018-06-10T10:20:02.023Z,10.77
2018-06-10T10:22:29.407Z,11.20
2018-06-10T10:24:56.735Z,12.53
2018-06-10T10:27:24.020Z,11.70
2018-06-10T10:29:51.380Z,12.17
2018-06-10T10:32:18.809Z,11.40
2018-06-10T10:34:46.123Z,11.97
2018-06-10T10:37:13.377Z,11.73
2018-06-10T10:39:40.719Z,12.93
2018-06-10T10:42:08.055Z,12.83
2018-06-10T10:44:35.284Z,12.93
2018-06-10T10:47:02.760Z,12.90
2018-06-10T10:49:30.012Z,13.80
2018-06-10T10:51:57.691Z,12.73
2018-06-10T10:54:24.906Z,14.20
2018-06-10T10:56:52.130Z,13.73
2018-06-10T10:59:19.315Z,14.00
2018-06-10T11:01:46.580Z,13.43
2018-06-10T11:04:13.815Z,13.70
2018-06-10T11:06:41.017Z,14.70
2018-06-10T11:09:08.224Z,13.60
2018-06-10T11:11:35.498Z,15.20
2018-06-10T11:14:02.791Z,14.23
2018-06-10T11:16:30.021Z,14.03
2018-06-10T11:18:57.219Z,14.30
2018-06-10T11:21:24.443Z,14.67
2018-06-10T11:23:51.660Z,15.47
2018-06-10T11:26:18.853Z,15.70
2018-06-10T11:28:46.117Z,15.87
2018-06-10T11:31:13.388Z,15.00
2018-06-10T11:33:40.636Z,16.80
2018-06-10T11:36:07.963Z,15.23
2018-06-10T11:38:35.185Z,17.70
2018-06-10T11:41:02.408Z,15.13
2018-06-10T11:43:29.655Z,15.30
2018-06-10T11:45:56.979Z,17.30
2018-06-10T11:48:24.236Z,15.13
2018-06-10T11:50:51.504Z,15.93
2018-06-10T11:53:18.748Z,15.20
2018-06-10T11:55:45.968Z,14.90
2018-06-10T11:58:13.214Z,14.00
2018-06-10T12:00:40.575Z,14.47
2018-06-10T12:03:07.845Z,15.10
2018-06-10T12:05:35.084Z,15.63
2018-06-10T12:08:02.353Z,17.27
2018-06-10T12:10:29.673Z,17.13
2018-06-10T12:12:56.836Z,17.00
2018-06-10T12:15:24.184Z,17.27
2018-06-10T12:17:51.440Z,15.67
2018-06-10T12:20:18.656Z,17.60
2018-06-10T12:22:46.057Z,16.90
2018-06-10T12:25:13.300Z,17.50
2018-06-10T12:27:40.589Z,17.43
2018-06-10T12:30:07.871Z,17.27
2018-06-10T12:32:35.143Z,16.77
2018-06-10T12:35:02.413Z,15.53
2018-06-10T12:37:29.675Z,15.87
2018-06-10T12:39:56.925Z,16.20
2018-06-10T12:42:24.186Z,16.67
2018-06-10T12:44:51.531Z,16.40
2018-06-10T12:47:18.780Z,16.77
2018-06-10T12:49:46.035Z,16.90
2018-06-10T12:52:13.272Z,15.40
2018-06-10T12:54:40.699Z,15.30
2018-06-10T12:57:07.992Z,15.43
2018-06-10T12:59:35.236Z,16.60
2018-06-10T13:02:02.520Z,16.77
2018-06-10T13:04:29.731Z,16.30
2018-06-10T13:06:56.969Z,16.00
2018-06-10T13:09:24.207Z,16.00
2018-06-10T13:11:51.440Z,15.30
2018-06-10T13:14:18.715Z,16.80
2018-06-10T13:16:45.949Z,14.50
2018-06-10T13:19:13.157Z,14.10
2018-06-10T13:21:40.443Z,13.97
2018-06-10T13:24:07.631Z,15.20
2018-06-10T13:26:34.812Z,14.10
2018-06-10T13:29:07.952Z,14.23
2018-06-10T13:31:35.188Z,13.80
2018-06-10T13:34:02.424Z,15.20
2018-06-10T13:36:29.705Z,13.77
2018-06-10T13:38:57.098Z,15.37
2018-06-10T13:41:24.360Z,15.33
2018-06-10T13:43:51.584Z,13.80
2018-06-10T13:46:18.894Z,13.50
2018-06-10T13:48:46.143Z,12.47
2018-06-10T13:51:13.472Z,13.23
2018-06-10T13:53:40.728Z,12.53
2018-06-10T13:56:07.987Z,13.63
2018-06-10T13:58:35.411Z,14.67
2018-06-10T14:01:02.613Z,13.63
2018-06-10T14:03:29.912Z,15.20
2018-06-10T14:05:57.194Z,14.30
2018-06-10T14:08:24.417Z,13.67
2018-06-10T14:10:51.675Z,14.40
2018-06-10T14:13:18.891Z,14.60
2018-06-10T14:15:46.133Z,13.47
2018-06-10T14:18:13.388Z,13.73
2018-06-10T14:20:40.664Z,13.10
2018-06-10T14:23:07.968Z,15.57
2018-06-10T14:25:35.331Z,15.17
2018-06-10T14:28:02.583Z,14.13
2018-06-10T14:30:29.848Z,14.77
2018-06-10T14:32:57.124Z,13.70
2018-06-10T14:35:24.467Z,13.20
2018-06-10T14:37:51.730Z,12.90
2018-06-10T14:40:18.908Z,12.20
2018-06-10T14:42:46.272Z,11.60
2018-06-10T14:45:13.472Z,11.60
2018-06-10T14:47:40.731Z,10.80
2018-06-10T14:50:07.935Z,10.47
2018-06-10T14:52:35.260Z,9.90
2018-06-10T14:55:02.587Z,11.63
2018-06-10T14:57:29.824Z,10.83
2018-06-10T14:59:57.123Z,10.63
2018-06-10T15:02:24.372Z,9.97
2018-06-10T15:04:51.673Z,10.27
2018-06-10T15:07:18.909Z,10.70
2018-06-10T15:09:46.173Z,10.30
2018-06-10T15:12:13.393Z,9.07
2018-06-10T15:14:40.733Z,9.37
2018-06-10T15:17:07.992Z,9.57
2018-06-10T15:19:35.288Z,10.40
2018-06-10T15:22:02.605Z,9.43
2018-06-10T15:24:29.823Z,8.83
2018-06-10T15:26:57.048Z,8.10
2018-06-10T15:29:24.307Z,8.20
2018-06-10T15:31:51.535Z,8.07
2018-06-10T15:34:18.799Z,7.50
2018-06-10T15:36:46.005Z,8.50
2018-06-10T15:39:13.224Z,8.57
2018-06-10T15:41:40.436Z,8.80
2018-06-10T15:44:07.664Z,10.20
2018-06-10T15:46:34.983Z,9.47
2018-06-10T15:49:02.104Z,8.97
2018-06-10T15:51:29.329Z,8.80
2018-06-10T15:53:56.555Z,8.57
2018-06-10T15:56:23.801Z,9.07
2018-06-10T15:58:51.003Z,9.33
2018-06-10T16:01:18.224Z,8.63
2018-06-10T16:03:45.431Z,8.17
2018-06-10T16:06:12.664Z,7.87
2018-06-10T16:08:39.927Z,8.30
2018-06-10T16:11:07.150Z,8.13
2018-06-10T16:13:34.376Z,8.63
2018-06-10T16:16:01.601Z,8.73
2018-06-10T16:18:29.672Z,8.60
2018-06-10T16:20:56.864Z,9.30
2018-06-10T16:23:24.088Z,9.20
2018-06-10T16:25:51.300Z,8.13
2018-06-10T16:28:18.545Z,8.60
2018-06-10T16:30:45.795Z,8.20
2018-06-10T16:33:13.044Z,8.10
2018-06-10T16:35:40.336Z,8.10
2018-06-10T16:38:07.604Z,7.83
2018-06-10T16:40:34.870Z,8.23
2018-06-10T16:43:02.111Z,7.63
2018-06-10T16:45:29.396Z,8.73
2018-06-10T16:47:56.661Z,8.77
2018-06-10T16:50:23.919Z,8.30
2018-06-10T16:52:51.139Z,8.57
2018-06-10T16:55:18.394Z,8.53
2018-06-10T16:57:45.639Z,8.83
2018-06-10T17:00:12.904Z,8.70
2018-06-10T17:02:40.471Z,8.70
2018-06-10T17:05:07.715Z,8.40
2018-06-10T17:07:34.990Z,9.40
2018-06-10T17:10:02.249Z,8.33
2018-06-10T17:12:29.491Z,8.47
2018-06-10T17:14:58.334Z,9.20
2018-06-10T17:17:25.772Z,8.90
2018-06-10T17:19:53.028Z,10.17
2018-06-10T17:22:20.421Z,9.10
2018-06-10T17:24:47.680Z,8.97
2018-06-10T17:27:14.924Z,9.33
2018-06-10T17:29:42.197Z,9.07
2018-06-10T17:32:09.469Z,9.40
2018-06-10T17:34:36.723Z,10.20
2018-06-10T17:37:03.978Z,9.10
2018-06-10T17:39:31.215Z,8.47
2018-06-10T17:41:58.441Z,9.23
2018-06-10T17:44:25.756Z,9.47
2018-06-10T17:46:53.017Z,9.30
2018-06-10T17:49:20.255Z,9.03
2018-06-10T17:51:47.590Z,10.17
2018-06-10T17:54:14.817Z,13.07
2018-06-10T17:56:42.049Z,12.77
2018-06-10T17:59:09.314Z,12.73
2018-06-10T18:01:36.572Z,12.87
2018-06-10T18:04:03.908Z,13.13
2018-06-10T18:06:31.176Z,14.00
2018-06-10T18:08:58.433Z,13.50
2018-06-10T18:11:25.675Z,13.40
2018-06-10T18:13:52.953Z,14.17
2018-06-10T18:16:20.180Z,13.60
2018-06-10T18:18:47.428Z,13.00
2018-06-10T18:21:14.774Z,13.93
2018-06-10T18:23:42.029Z,14.03
2018-06-10T18:26:09.256Z,13.30
2018-06-10T18:28:36.509Z,14.03
2018-06-10T18:31:03.781Z,14.00
2018-06-10T18:33:31.027Z,13.80
2018-06-10T18:35:58.265Z,15.13
2018-06-10T18:38:25.592Z,13.33
2018-06-10T18:40:52.873Z,14.90
2018-06-10T18:43:20.112Z,14.00
2018-06-10T18:45:47.347Z,14.77
2018-06-10T18:48:14.600Z,14.20
2018-06-10T18:50:41.876Z,13.30
2018-06-10T18:53:09.143Z,14.10
2018-06-10T18:55:36.395Z,14.30
2018-06-10T18:58:03.680Z,11.83
2018-06-10T19:00:30.955Z,12.97
2018-06-10T19:02:58.223Z,12.87
2018-06-10T19:05:25.501Z,13.77
2018-06-10T19:07:52.783Z,13.43
2018-06-10T19:10:20.056Z,14.70
2018-06-10T19:12:47.248Z,13.40
2018-06-10T19:15:14.516Z,14.80
2018-06-10T19:17:41.756Z,14.60
2018-06-10T19:20:08.987Z,14.80
2018-06-10T19:22:36.247Z,15.00
2018-06-10T19:25:03.564Z,14.23
2018-06-10T19:27:31.111Z,14.60
2018-06-10T19:29:58.360Z,15.00
2018-06-10T19:32:25.612Z,14.03
2018-06-10T19:34:52.851Z,14.27
2018-06-10T19:37:20.166Z,14.40
2018-06-10T19:39:47.363Z,14.53
2018-06-10T19:42:14.600Z,14.50
2018-06-10T19:44:41.869Z,15.60
2018-06-10T19:47:09.096Z,15.03
2018-06-10T19:49:36.376Z,15.63
2018-06-10T19:52:03.694Z,14.97
2018-06-10T19:54:30.925Z,15.20
2018-06-10T19:56:58.183Z,15.47
2018-06-10T19:59:25.415Z,16.80
2018-06-10T20:01:52.737Z,15.57
2018-06-10T20:04:19.960Z,16.73
2018-06-10T20:06:47.191Z,15.87
2018-06-10T20:09:14.445Z,15.57
2018-06-10T20:11:41.700Z,14.23
2018-06-10T20:14:08.967Z,16.17
2018-06-10T20:16:36.224Z,16.10
2018-06-10T20:19:03.464Z,14.63
2018-06-10T20:21:30.723Z,14.27
2018-06-10T20:23:58.013Z,16.10
2018-06-10T20:26:25.259Z,15.90
2018-06-10T20:28:52.511Z,14.97
2018-06-10T20:31:19.731Z,17.20
2018-06-10T20:33:46.975Z,16.33
2018-06-10T20:36:14.228Z,15.97
2018-06-10T20:38:41.472Z,16.17
2018-06-10T20:41:08.739Z,16.93
2018-06-10T20:43:36.022Z,15.83
2018-06-10T20:46:03.447Z,15.40
2018-06-10T20:48:30.785Z,16.60
2018-06-10T20:50:57.956Z,15.77
2018-06-10T20:53:25.309Z,16.40
2018-06-10T20:55:52.531Z,15.13
2018-06-10T20:58:19.756Z,15.60
2018-06-10T21:00:47.000Z,15.50
2018-06-10T21:03:14.215Z,15.53
2018-06-10T21:05:41.529Z,16.50
2018-06-10T21:08:08.824Z,16.83
2018-06-10T21:10:36.055Z,16.20
2018-06-10T21:13:03.305Z,16.60
2018-06-10T21:15:30.574Z,16.87
2018-06-10T21:17:57.840Z,16.40
2018-06-10T21:20:25.154Z,16.03
2018-06-10T21:22:52.440Z,16.10
2018-06-10T21:25:19.684Z,15.80
2018-06-10T21:27:46.947Z,17.50
2018-06-10T21:30:14.292Z,16.87
2018-06-10T21:32:41.528Z,17.23
2018-06-10T21:35:08.773Z,15.53
2018-06-10T21:37:36.081Z,16.10
2018-06-10T21:40:03.340Z,16.57
2018-06-10T21:42:30.608Z,15.53
2018-06-10T21:44:57.865Z,16.40
2018-06-10T21:47:25.105Z,16.57
2018-06-10T21:49:52.324Z,16.23
2018-06-10T21:52:19.545Z,15.83
2018-06-10T21:54:46.772Z,15.40
2018-06-10T21:57:13.995Z,16.23
2018-06-10T21:59:41.221Z,16.80
2018-06-10T22:02:08.467Z,15.60
2018-06-10T22:04:35.707Z,15.87
2018-06-10T22:07:02.983Z,16.70
2018-06-10T22:09:30.220Z,16.57
2018-06-10T22:11:57.544Z,15.30
2018-06-10T22:14:24.802Z,16.63
2018-06-10T22:16:52.024Z,17.10
2018-06-10T22:19:19.241Z,17.23
2018-06-10T22:21:46.467Z,17.90
2018-06-10T22:24:13.707Z,15.57
2018-06-10T22:26:40.920Z,17.57
2018-06-10T22:29:08.176Z,17.40
2018-06-10T22:31:35.383Z,15.63
2018-06-10T22:34:02.697Z,15.80
2018-06-10T22:36:29.967Z,16.50
2018-06-10T22:38:57.279Z,16.33
2018-06-10T22:41:24.529Z,14.70
2018-06-10T22:43:51.803Z,15.50
2018-06-10T22:46:19.053Z,16.63
2018-06-10T22:48:46.304Z,16.67
2018-06-10T22:51:13.581Z,17.30
2018-06-10T22:54:03.355Z,16.00
2018-06-10T22:56:30.608Z,16.80
2018-06-10T22:58:57.837Z,16.40
2018-06-10T23:01:25.120Z,17.97
2018-06-10T23:03:52.351Z,16.27
2018-06-10T23:06:19.593Z,16.73
2018-06-10T23:08:46.877Z,16.80
2018-06-10T23:11:14.121Z,16.20
2018-06-10T23:13:41.355Z,14.90
2018-06-10T23:16:08.645Z,15.97
2018-06-10T23:18:35.889Z,14.27
2018-06-10T23:21:03.141Z,13.07
2018-06-10T23:23:30.416Z,15.00
2018-06-10T23:25:57.639Z,14.77
2018-06-10T23:28:24.897Z,14.13
2018-06-10T23:30:52.145Z,13.60
2018-06-10T23:33:19.443Z,15.27
2018-06-10T23:35:46.692Z,16.50
2018-06-10T23:38:13.917Z,15.00
2018-06-10T23:40:41.180Z,16.27
2018-06-10T23:43:08.453Z,15.80
2018-06-10T23:45:35.724Z,16.27
2018-06-10T23:48:02.951Z,17.10
2018-06-10T23:50:30.202Z,15.73
2018-06-10T23:52:57.444Z,16.03
2018-06-10T23:55:24.711Z,17.10
2018-06-10T23:57:51.979Z,15.97
